createdAt,value
2022-10-05T00:00:14.460Z,73.95
2022-10-05T00:02:41.463Z,73.85
2022-10-05T00:05:30.968Z,73.74
2022-10-05T00:08:04.920Z,73.66
2022-10-05T00:10:31.496Z,73.62
2022-10-05T00:12:58.370Z,73.72
2022-10-05T00:15:25.027Z,73.97
2022-10-05T00:17:51.608Z,74.33
2022-10-05T00:20:18.429Z,74.48
2022-10-05T00:22:48.256Z,74.49
2022-10-05T00:25:20.990Z,74.64
2022-10-05T00:28:00.382Z,74.57
2022-10-05T00:30:32.467Z,74.98
2022-10-05T00:32:59.987Z,75.22
2022-10-05T00:35:29.370Z,75.24
2022-10-05T00:37:57.767Z,74.91
2022-10-05T00:40:33.794Z,74.98
2022-10-05T00:43:15.544Z,75.16
2022-10-05T00:45:56.605Z,74.69
2022-10-05T00:48:55.529Z,74.99
2022-10-05T00:51:28.468Z,75.51
2022-10-05T00:54:09.319Z,75.33
2022-10-05T00:56:57.324Z,75.18
2022-10-05T00:59:40.201Z,74.91
2022-10-05T01:02:24.571Z,75.35
2022-10-05T01:04:56.565Z,75.67
2022-10-05T01:07:35.252Z,75.66
2022-10-05T01:10:39.563Z,75.30
2022-10-05T01:13:29.586Z,74.69
2022-10-05T01:16:17.794Z,74.44
2022-10-05T01:18:53.950Z,75.08
2022-10-05T01:21:26.679Z,75.18
2022-10-05T01:24:18.272Z,75.04
2022-10-05T01:27:03.110Z,75.18
2022-10-05T01:29:41.842Z,75.44
2022-10-05T01:32:23.929Z,75.64
2022-10-05T01:35:02.427Z,75.27
2022-10-05T01:37:51.352Z,75.43
2022-10-05T01:40:38.599Z,75.11
2022-10-05T01:43:08.103Z,75.43
2022-10-05T01:45:49.182Z,75.34
2022-10-05T01:48:37.126Z,75.92
2022-10-05T01:51:28.563Z,75.84
2022-10-05T01:54:14.044Z,75.52
2022-10-05T01:56:40.647Z,75.95
2022-10-05T01:59:18.072Z,76.37
2022-10-05T02:02:05.227Z,76.05
2022-10-05T02:05:01.556Z,75.98
2022-10-05T02:07:54.349Z,76.36
2022-10-05T02:10:25.014Z,76.37
2022-10-05T02:12:59.394Z,75.47
2022-10-05T02:15:31.628Z,75.39
2022-10-05T02:18:03.408Z,75.82
2022-10-05T02:20:34.561Z,76.11
2022-10-05T02:23:07.491Z,75.91
2022-10-05T02:25:39.931Z,75.99
2022-10-05T02:28:18.723Z,75.79
2022-10-05T02:30:52.692Z,75.63
2022-10-05T02:33:27.636Z,75.69
2022-10-05T02:35:55.833Z,75.54
2022-10-05T02:38:36.726Z,75.40
2022-10-05T02:41:12.297Z,75.94
2022-10-05T02:43:57.200Z,75.98
2022-10-05T02:47:07.328Z,75.91
2022-10-05T02:50:00.537Z,75.61
2022-10-05T02:52:34.915Z,76.36
2022-10-05T02:55:24.778Z,75.89
2022-10-05T02:58:13.695Z,76.12
2022-10-05T03:00:48.024Z,76.21
2022-10-05T03:03:31.028Z,75.80
2022-10-05T03:06:03.858Z,75.93
2022-10-05T03:08:46.944Z,76.28
2022-10-05T03:11:16.480Z,76.23
2022-10-05T03:14:09.352Z,76.22
2022-10-05T03:17:00.902Z,76.44
2022-10-05T03:19:55.742Z,76.55
2022-10-05T03:22:45.624Z,76.47
2022-10-05T03:25:38.046Z,75.84
2022-10-05T03:28:17.894Z,75.92
2022-10-05T03:30:55.301Z,75.77
2022-10-05T03:33:42.962Z,75.54
2022-10-05T03:36:24.779Z,75.78
2022-10-05T03:39:17.735Z,75.96
2022-10-05T03:42:10.483Z,76.10
2022-10-05T03:44:44.433Z,76.68
2022-10-05T03:47:25.361Z,76.88
2022-10-05T03:50:10.448Z,76.74
2022-10-05T03:52:44.309Z,77.23
2022-10-05T03:55:20.217Z,77.04
2022-10-05T03:57:48.831Z,76.37
2022-10-05T04:00:20.086Z,76.67
2022-10-05T04:02:46.838Z,76.33
2022-10-05T04:05:24.771Z,76.01
2022-10-05T04:07:58.709Z,76.14
2022-10-05T04:10:53.344Z,76.03
2022-10-05T04:13:35.651Z,76.52
2022-10-05T04:16:31.722Z,76.19
2022-10-05T04:19:23.575Z,75.52
2022-10-05T04:22:11.770Z,76.21
2022-10-05T04:25:01.522Z,76.21
2022-10-05T04:27:39.388Z,75.95
2022-10-05T04:30:18.800Z,75.67
2022-10-05T04:32:50.059Z,76.20
2022-10-05T04:35:41.325Z,75.60
2022-10-05T04:38:35.871Z,75.49
2022-10-05T04:41:16.654Z,75.62
2022-10-05T04:43:49.311Z,76.21
2022-10-05T04:46:57.896Z,76.01
2022-10-05T04:49:45.825Z,76.75
2022-10-05T04:52:24.467Z,76.52
2022-10-05T04:55:10.135Z,75.78
2022-10-05T04:58:15.557Z,75.94
2022-10-05T05:01:12.814Z,75.86
2022-10-05T05:04:23.509Z,76.30
2022-10-05T05:06:56.458Z,76.70
2022-10-05T05:10:04.020Z,77.06
2022-10-05T05:12:36.616Z,77.33
2022-10-05T05:15:41.921Z,76.88
2022-10-05T05:18:39.575Z,76.94
2022-10-05T05:21:34.360Z,77.01
2022-10-05T05:24:20.913Z,77.42
2022-10-05T05:27:10.091Z,76.81
2022-10-05T05:30:01.512Z,77.03
2022-10-05T05:32:52.934Z,77.88
2022-10-05T05:35:37.972Z,77.48
2022-10-05T05:38:16.948Z,77.21
2022-10-05T05:41:10.086Z,77.57
2022-10-05T05:43:46.201Z,77.19
2022-10-05T05:46:44.770Z,77.49
2022-10-05T05:49:39.873Z,77.47
2022-10-05T05:52:24.563Z,77.42
2022-10-05T05:55:00.369Z,77.71
2022-10-05T05:57:38.481Z,77.55
2022-10-05T06:00:20.648Z,77.62
2022-10-05T06:03:26.758Z,77.47
2022-10-05T06:06:04.357Z,77.70
2022-10-05T06:08:53.079Z,77.38
2022-10-05T06:11:31.700Z,77.56
2022-10-05T06:14:04.492Z,77.40
2022-10-05T06:16:53.941Z,77.05
2022-10-05T06:19:23.874Z,77.23
2022-10-05T06:22:23.857Z,76.88
2022-10-05T06:24:59.650Z,76.57
2022-10-05T06:28:03.782Z,77.22
2022-10-05T06:31:06.088Z,76.96
2022-10-05T06:33:52.561Z,76.70
2022-10-05T06:36:40.255Z,76.13
2022-10-05T06:39:31.922Z,75.95
2022-10-05T06:42:27.069Z,75.93
2022-10-05T06:45:11.835Z,75.89
2022-10-05T06:47:44.362Z,75.62
2022-10-05T06:50:28.953Z,75.36
2022-10-05T06:53:07.736Z,75.68
2022-10-05T06:56:04.504Z,75.70
2022-10-05T06:58:48.861Z,74.91
2022-10-05T07:02:00.667Z,74.25
2022-10-05T07:04:36.957Z,73.86
2022-10-05T07:07:31.082Z,73.99
2022-10-05T07:10:22.818Z,74.10
2022-10-05T07:13:01.896Z,73.04
2022-10-05T07:16:03.865Z,72.96
2022-10-05T07:18:49.181Z,72.78
2022-10-05T07:21:39.940Z,71.74
2022-10-05T07:24:23.858Z,71.29
2022-10-05T07:27:18.925Z,70.68
2022-10-05T07:30:10.615Z,70.94
2022-10-05T07:33:09.347Z,70.93
2022-10-05T07:36:01.065Z,71.20
2022-10-05T07:38:42.455Z,71.49
2022-10-05T07:41:26.194Z,71.40
2022-10-05T07:44:08.864Z,71.36
2022-10-05T07:46:55.469Z,71.05
2022-10-05T07:49:53.492Z,70.04
2022-10-05T07:52:25.130Z,70.43
2022-10-05T07:55:05.976Z,70.33
2022-10-05T07:58:07.838Z,70.16
2022-10-05T08:01:00.545Z,70.49
2022-10-05T08:03:34.707Z,70.01
2022-10-05T08:06:05.749Z,70.05
2022-10-05T08:08:41.213Z,69.87
2022-10-05T08:11:17.583Z,69.81
2022-10-05T08:13:56.368Z,69.98
2022-10-05T08:16:30.766Z,69.40
2022-10-05T08:19:00.748Z,69.29
2022-10-05T08:21:39.408Z,69.45
2022-10-05T08:24:11.127Z,69.69
2022-10-05T08:27:02.772Z,68.83
2022-10-05T08:29:47.926Z,68.20
2022-10-05T08:32:22.768Z,68.51
2022-10-05T08:34:59.443Z,68.28
2022-10-05T08:37:38.996Z,67.74
2022-10-05T08:40:36.875Z,67.54
2022-10-05T08:43:18.641Z,67.37
2022-10-05T08:46:17.807Z,67.05
2022-10-05T08:49:23.653Z,66.96
2022-10-05T08:51:56.717Z,67.16
2022-10-05T08:54:46.757Z,66.23
2022-10-05T08:57:19.431Z,65.75
2022-10-05T09:00:03.716Z,65.47
2022-10-05T09:02:36.558Z,65.09
2022-10-05T09:05:38.797Z,64.73
2022-10-05T09:08:23.728Z,63.86
2022-10-05T09:11:14.876Z,63.15
2022-10-05T09:13:53.823Z,63.11
2022-10-05T09:16:45.743Z,62.36
2022-10-05T09:19:24.530Z,62.03
2022-10-05T09:22:15.851Z,62.08
2022-10-05T09:24:57.570Z,61.51
2022-10-05T09:27:49.456Z,60.88
2022-10-05T09:30:29.012Z,61.00
2022-10-05T09:37:09.476Z,59.28
2022-10-05T09:39:46.616Z,59.66
2022-10-05T09:42:38.225Z,59.18
2022-10-05T09:45:23.347Z,58.04
2022-10-05T09:48:13.404Z,57.37
2022-10-05T09:51:11.155Z,56.80
2022-10-05T09:54:02.329Z,57.21
2022-10-05T09:56:50.427Z,56.41
2022-10-05T10:00:00.769Z,56.83
2022-10-05T10:02:50.530Z,56.03
2022-10-05T10:05:39.371Z,55.82
2022-10-05T10:08:06.199Z,55.55
2022-10-05T10:11:02.294Z,54.06
2022-10-05T10:13:57.388Z,53.38
2022-10-05T10:16:27.048Z,53.49
2022-10-05T10:19:22.769Z,51.75
2022-10-05T10:21:56.738Z,51.62
2022-10-05T10:24:42.087Z,51.91
2022-10-05T10:27:24.247Z,51.39
2022-10-05T10:30:04.490Z,48.95
2022-10-05T10:32:37.052Z,49.19
2022-10-05T10:35:25.404Z,48.80
2022-10-05T10:38:14.138Z,48.82
2022-10-05T10:41:01.017Z,48.65
2022-10-05T10:43:43.928Z,48.75
2022-10-05T10:46:35.642Z,48.63
2022-10-05T10:49:20.493Z,47.94
2022-10-05T10:52:31.971Z,47.72
2022-10-05T10:55:43.228Z,47.26
2022-10-05T10:58:47.453Z,47.20
2022-10-05T11:04:37.475Z,46.47
2022-10-05T11:07:25.175Z,46.33
2022-10-05T11:10:10.156Z,45.62
2022-10-05T11:13:12.951Z,45.51
2022-10-05T11:15:57.651Z,44.77
2022-10-05T11:18:29.747Z,44.64
2022-10-05T11:20:59.231Z,45.23
2022-10-05T11:23:57.536Z,45.33
2022-10-05T11:26:45.463Z,46.82
2022-10-05T11:29:32.578Z,46.77
2022-10-05T11:32:02.366Z,47.15
2022-10-05T11:35:04.555Z,47.29
2022-10-05T11:37:59.358Z,47.88
2022-10-05T11:40:50.418Z,47.65
2022-10-05T11:43:23.483Z,48.25
2022-10-05T11:46:20.247Z,48.03
2022-10-05T11:49:02.160Z,49.06
2022-10-05T11:51:41.398Z,48.98
2022-10-05T11:54:26.976Z,47.97
2022-10-05T11:57:04.041Z,48.49
2022-10-05T11:59:39.729Z,48.87
2022-10-05T12:02:06.341Z,49.22
2022-10-05T12:04:35.954Z,48.82
2022-10-05T12:07:09.416Z,49.06
2022-10-05T12:10:02.090Z,49.50
2022-10-05T12:12:35.973Z,49.19
2022-10-05T12:15:18.228Z,50.03
2022-10-05T12:17:53.157Z,50.11
2022-10-05T12:20:39.344Z,49.77
2022-10-05T12:23:28.151Z,49.30
2022-10-05T12:26:07.941Z,49.57
2022-10-05T12:28:52.322Z,50.03
2022-10-05T12:31:30.769Z,50.17
2022-10-05T12:34:03.012Z,50.06
2022-10-05T12:37:03.173Z,49.89
2022-10-05T12:39:47.817Z,49.74
2022-10-05T12:42:14.437Z,50.14
2022-10-05T12:44:59.503Z,49.78
2022-10-05T12:47:45.041Z,50.45
2022-10-05T12:50:18.342Z,51.16
2022-10-05T12:53:11.319Z,50.20
2022-10-05T12:55:51.745Z,49.40
2022-10-05T12:58:46.285Z,49.53
2022-10-05T13:01:50.957Z,49.76
2022-10-05T13:04:42.075Z,50.38
2022-10-05T13:07:20.889Z,49.90
2022-10-05T13:09:53.457Z,50.12
2022-10-05T13:12:48.122Z,49.47
2022-10-05T13:15:31.746Z,50.06
2022-10-05T13:18:19.821Z,50.06
2022-10-05T13:21:01.261Z,50.19
2022-10-05T13:23:35.021Z,50.96
2022-10-05T13:26:06.528Z,50.48
2022-10-05T13:28:49.232Z,50.39
2022-10-05T13:31:24.789Z,49.45
2022-10-05T13:34:05.112Z,49.20
2022-10-05T13:36:46.697Z,50.24
2022-10-05T13:39:49.402Z,49.55
2022-10-05T13:42:26.092Z,49.67
2022-10-05T13:44:55.877Z,49.41
2022-10-05T13:47:42.327Z,49.71
2022-10-05T13:50:24.838Z,49.63
2022-10-05T13:53:29.798Z,50.13
2022-10-05T13:56:00.739Z,51.95
2022-10-05T13:58:46.370Z,50.36
2022-10-05T14:01:18.882Z,50.72
2022-10-05T14:04:35.171Z,49.45
2022-10-05T14:07:23.672Z,50.40
2022-10-05T14:09:50.372Z,50.50
2022-10-05T14:12:22.741Z,50.54
2022-10-05T14:14:56.969Z,51.22
2022-10-05T14:17:29.165Z,49.72
2022-10-05T14:20:02.806Z,50.30
2022-10-05T14:22:29.588Z,50.04
2022-10-05T14:25:03.259Z,49.39
2022-10-05T14:27:33.341Z,49.85
2022-10-05T14:30:17.078Z,49.85
2022-10-05T14:32:52.769Z,51.02
2022-10-05T14:35:25.477Z,50.47
2022-10-05T14:38:00.534Z,50.00
2022-10-05T14:40:32.297Z,49.77
2022-10-05T14:43:17.130Z,49.72
2022-10-05T14:46:23.327Z,49.81
2022-10-05T14:49:14.217Z,49.22
2022-10-05T14:51:42.911Z,49.71
2022-10-05T14:54:30.405Z,49.49
2022-10-05T14:57:15.418Z,48.93
2022-10-05T15:00:02.209Z,49.37
2022-10-05T15:02:56.794Z,49.30
2022-10-05T15:05:35.593Z,49.60
2022-10-05T15:08:08.827Z,49.59
2022-10-05T15:10:49.877Z,50.72
2022-10-05T15:13:24.266Z,49.59
2022-10-05T15:16:04.120Z,49.46
2022-10-05T15:18:57.842Z,49.55
2022-10-05T15:21:54.485Z,48.81
2022-10-05T15:24:26.427Z,49.88
2022-10-05T15:26:57.829Z,49.89
2022-10-05T15:29:35.245Z,49.70
2022-10-05T15:32:23.531Z,49.55
2022-10-05T15:35:29.947Z,49.66
2022-10-05T15:38:02.646Z,49.13
2022-10-05T15:40:54.918Z,49.51
2022-10-05T15:43:24.174Z,50.04
2022-10-05T15:46:06.431Z,49.24
2022-10-05T15:48:49.304Z,49.53
2022-10-05T15:51:30.617Z,49.46
2022-10-05T15:54:53.419Z,49.67
2022-10-05T15:57:52.589Z,50.40
2022-10-05T16:00:22.217Z,50.04
2022-10-05T16:03:08.716Z,50.29
2022-10-05T16:05:57.647Z,50.35
2022-10-05T16:08:54.115Z,50.47
2022-10-05T16:11:52.735Z,50.00
2022-10-05T16:14:42.046Z,49.82
2022-10-05T16:17:21.310Z,50.02
2022-10-05T16:19:53.942Z,50.39
2022-10-05T16:22:45.078Z,50.38
2022-10-05T16:25:31.148Z,50.30
2022-10-05T16:28:16.445Z,50.45
2022-10-05T16:31:00.193Z,51.12
2022-10-05T16:33:54.425Z,50.81
2022-10-05T16:36:27.165Z,51.09
2022-10-05T16:39:03.607Z,50.94
2022-10-05T16:41:43.502Z,50.85
2022-10-05T16:44:31.958Z,50.78
2022-10-05T16:47:28.302Z,51.38
2022-10-05T16:50:19.742Z,52.25
2022-10-05T16:53:09.576Z,51.82
2022-10-05T16:55:42.222Z,52.48
2022-10-05T16:58:17.590Z,53.84
2022-10-05T17:03:54.684Z,55.72
2022-10-05T17:06:27.655Z,56.28
2022-10-05T17:09:32.083Z,56.51
2022-10-05T17:12:29.555Z,57.26
2022-10-05T17:15:25.862Z,58.00
2022-10-05T17:18:23.993Z,58.31
2022-10-05T17:21:21.462Z,58.36
2022-10-05T17:24:18.383Z,58.70
2022-10-05T17:27:12.792Z,59.08
2022-10-05T17:29:47.728Z,59.44
2022-10-05T17:32:17.305Z,59.67
2022-10-05T17:35:18.179Z,60.03
2022-10-05T17:38:14.418Z,60.25
2022-10-05T17:41:01.177Z,60.51
2022-10-05T17:43:35.305Z,60.85
2022-10-05T17:46:09.036Z,60.95
2022-10-05T17:48:47.247Z,60.91
2022-10-05T17:51:48.603Z,61.51
2022-10-05T17:54:44.495Z,61.39
2022-10-05T17:57:11.042Z,61.76
2022-10-05T17:59:47.001Z,61.96
2022-10-05T18:02:21.006Z,62.13
2022-10-05T18:05:12.476Z,62.41
2022-10-05T18:07:42.054Z,62.36
2022-10-05T18:10:11.824Z,62.35
2022-10-05T18:13:29.928Z,62.64
2022-10-05T18:15:56.733Z,62.63
2022-10-05T18:18:54.698Z,62.68
2022-10-05T18:21:37.099Z,62.93
2022-10-05T18:24:14.248Z,62.97
2022-10-05T18:26:54.629Z,63.04
2022-10-05T18:30:02.757Z,63.29
2022-10-05T18:32:51.097Z,63.59
2022-10-05T18:35:39.558Z,63.68
2022-10-05T18:38:19.301Z,63.64
2022-10-05T18:40:58.233Z,64.05
2022-10-05T18:43:45.699Z,63.96
2022-10-05T18:46:25.142Z,64.15
2022-10-05T18:48:57.551Z,64.45
2022-10-05T18:51:52.850Z,64.75
2022-10-05T18:54:43.636Z,64.72
2022-10-05T18:57:52.556Z,65.15
2022-10-05T19:00:54.419Z,65.36
2022-10-05T19:03:46.552Z,65.48
2022-10-05T19:06:30.243Z,65.40
2022-10-05T19:08:56.919Z,65.36
2022-10-05T19:11:29.925Z,65.54
2022-10-05T19:14:19.869Z,65.80
2022-10-05T19:17:12.332Z,66.08
2022-10-05T19:19:38.970Z,66.03
2022-10-05T19:22:25.205Z,66.26
2022-10-05T19:25:14.887Z,66.33
2022-10-05T19:28:20.585Z,66.63
2022-10-05T19:31:02.898Z,67.04
2022-10-05T19:34:07.273Z,67.33
2022-10-05T19:36:55.809Z,67.36
2022-10-05T19:39:41.423Z,67.55
2022-10-05T19:42:26.737Z,67.64
2022-10-05T19:45:24.652Z,67.94
2022-10-05T19:48:13.600Z,68.16
2022-10-05T19:50:56.338Z,67.87
2022-10-05T19:53:35.170Z,67.77
2022-10-05T19:56:33.712Z,67.97
2022-10-05T19:59:13.875Z,68.51
2022-10-05T20:01:50.095Z,68.68
2022-10-05T20:04:44.834Z,68.66
2022-10-05T20:07:20.728Z,68.63
2022-10-05T20:09:59.093Z,68.64
2022-10-05T20:12:51.995Z,68.30
2022-10-05T20:15:53.358Z,68.21
2022-10-05T20:19:03.645Z,68.48
2022-10-05T20:21:47.049Z,68.56
2022-10-05T20:24:26.035Z,68.62
2022-10-05T20:27:02.608Z,68.99
2022-10-05T20:29:33.680Z,69.47
2022-10-05T20:32:04.597Z,69.51
2022-10-05T20:34:33.042Z,69.02
2022-10-05T20:37:00.797Z,69.51
2022-10-05T20:39:29.543Z,69.56
2022-10-05T20:41:58.490Z,69.80
2022-10-05T20:44:26.341Z,70.33
2022-10-05T20:46:57.693Z,69.98
2022-10-05T20:49:27.233Z,70.44
2022-10-05T20:51:56.246Z,70.53
2022-10-05T20:54:24.584Z,70.25
2022-10-05T20:56:53.208Z,70.08
2022-10-05T20:59:19.936Z,70.42
2022-10-05T21:01:50.355Z,70.84
2022-10-05T21:04:18.743Z,70.67
2022-10-05T21:06:46.353Z,70.91
2022-10-05T21:09:18.392Z,70.84
2022-10-05T21:11:54.629Z,70.67
2022-10-05T21:14:22.861Z,71.00
2022-10-05T21:16:50.490Z,70.49
2022-10-05T21:19:17.481Z,70.77
2022-10-05T21:21:45.940Z,70.89
2022-10-05T21:24:14.304Z,70.99
2022-10-05T21:26:41.949Z,71.16
2022-10-05T21:29:12.506Z,71.27
2022-10-05T21:31:42.306Z,71.42
2022-10-05T21:34:09.048Z,71.75
2022-10-05T21:36:35.844Z,71.65
2022-10-05T21:39:02.598Z,70.97
2022-10-05T21:41:29.305Z,71.01
2022-10-05T21:43:56.621Z,70.54
2022-10-05T21:46:27.421Z,70.60
2022-10-05T21:48:56.288Z,71.17
2022-10-05T21:51:25.113Z,71.41
2022-10-05T21:54:06.265Z,71.16
2022-10-05T21:56:36.163Z,71.26
2022-10-05T21:59:09.602Z,71.19
2022-10-05T22:01:36.758Z,71.12
2022-10-05T22:04:07.199Z,70.90
2022-10-05T22:06:35.470Z,70.92
2022-10-05T22:09:02.588Z,70.50
2022-10-05T22:11:29.292Z,70.49
2022-10-05T22:14:02.913Z,70.51
2022-10-05T22:16:33.642Z,70.89
2022-10-05T22:19:06.082Z,71.17
2022-10-05T22:21:37.991Z,71.01
2022-10-05T22:24:05.147Z,71.01
2022-10-05T22:26:32.698Z,70.81
2022-10-05T22:29:00.252Z,70.63
2022-10-05T22:31:27.207Z,70.70
2022-10-05T22:33:54.152Z,71.49
2022-10-05T22:36:22.431Z,71.30
2022-10-05T22:38:50.407Z,72.12
2022-10-05T22:41:18.443Z,72.62
2022-10-05T22:43:50.853Z,72.61
2022-10-05T22:46:18.202Z,72.59
2022-10-05T22:48:45.278Z,72.72
2022-10-05T22:51:12.146Z,73.03
2022-10-05T22:53:42.342Z,73.03
2022-10-05T22:56:11.656Z,72.77
2022-10-05T22:58:40.403Z,72.22
2022-10-05T23:01:12.514Z,72.37
2022-10-05T23:03:39.314Z,72.13
2022-10-05T23:06:12.449Z,72.13
2022-10-05T23:08:40.341Z,71.70
2022-10-05T23:11:15.477Z,71.40
2022-10-05T23:13:42.471Z,71.40
2022-10-05T23:16:18.195Z,70.81
2022-10-05T23:18:47.543Z,71.13
2022-10-05T23:21:14.936Z,71.19
2022-10-05T23:23:43.916Z,71.17
2022-10-05T23:26:11.600Z,71.58
2022-10-05T23:28:51.300Z,71.78
2022-10-05T23:31:23.465Z,71.51
2022-10-05T23:33:50.220Z,71.84
2022-10-05T23:36:24.001Z,71.59
2022-10-05T23:38:50.931Z,71.56
2022-10-05T23:41:21.105Z,71.53
2022-10-05T23:43:49.131Z,72.36
2022-10-05T23:46:17.711Z,71.79
2022-10-05T23:48:44.513Z,71.98
2022-10-05T23:51:13.068Z,71.93
2022-10-05T23:53:39.727Z,71.67
2022-10-05T23:56:06.673Z,71.45
2022-10-05T23:58:33.690Z,71.42
